sensor_id;sensor_type;location;lat;lon;timestamp;temperature;humidity
70368;DHT22;57789;53.868;10.728;2024-02-15T00:01:21;10.60;99.90
70368;DHT22;57789;53.868;10.728;2024-02-15T00:03:47;10.60;99.90
70368;DHT22;57789;53.868;10.728;2024-02-15T00:06:14;10.70;99.90
70368;DHT22;57789;53.868;10.728;2024-02-15T00:08:39;10.70;99.90
70368;DHT22;57789;53.868;10.728;2024-02-15T00:11:05;10.70;99.90
70368;DHT22;57789;53.868;10.728;2024-02-15T00:13:31;10.70;99.90
70368;DHT22;57789;53.868;10.728;2024-02-15T00:15:59;10.70;99.90
70368;DHT22;57789;53.868;10.728;2024-02-15T00:18:25;10.60;99.90
70368;DHT22;57789;53.868;10.728;2024-02-15T00:20:50;10.70;99.90
70368;DHT22;57789;53.868;10.728;2024-02-15T00:23:16;10.70;99.90
70368;DHT22;57789;53.868;10.728;2024-02-15T00:25:42;10.70;99.90
70368;DHT22;57789;53.868;10.728;2024-02-15T00:28:11;10.70;99.90
70368;DHT22;57789;53.868;10.728;2024-02-15T00:30:38;10.70;99.90
70368;DHT22;57789;53.868;10.728;2024-02-15T00:33:04;10.70;99.90
70368;DHT22;57789;53.868;10.728;2024-02-15T00:35:30;10.70;99.90
70368;DHT22;57789;53.868;10.728;2024-02-15T00:37:56;10.60;99.90
70368;DHT22;57789;53.868;10.728;2024-02-15T00:40:23;10.70;99.90
70368;DHT22;57789;53.868;10.728;2024-02-15T00:42:49;10.70;99.90
70368;DHT22;57789;53.868;10.728;2024-02-15T00:45:15;10.70;99.90
70368;DHT22;57789;53.868;10.728;2024-02-15T00:47:41;10.60;99.90
70368;DHT22;57789;53.868;10.728;2024-02-15T00:50:08;10.60;99.90
70368;DHT22;57789;53.868;10.728;2024-02-15T00:52:35;10.60;99.90
70368;DHT22;57789;53.868;10.728;2024-02-15T00:55:01;10.60;99.90
70368;DHT22;57789;53.868;10.728;2024-02-15T00:57:26;10.60;99.90
70368;DHT22;57789;53.868;10.728;2024-02-15T00:59:52;10.70;99.90
70368;DHT22;57789;53.868;10.728;2024-02-15T01:02:18;10.60;99.90
70368;DHT22;57789;53.868;10.728;2024-02-15T01:04:44;10.70;99.90
70368;DHT22;57789;53.868;10.728;2024-02-15T01:07:11;10.60;99.90
70368;DHT22;57789;53.868;10.728;2024-02-15T01:09:37;10.60;99.90
70368;DHT22;57789;53.868;10.728;2024-02-15T01:12:03;10.60;99.90
70368;DHT22;57789;53.868;10.728;2024-02-15T01:14:30;10.70;99.90
70368;DHT22;57789;53.868;10.728;2024-02-15T01:16:56;10.60;99.90
70368;DHT22;57789;53.868;10.728;2024-02-15T01:19:22;10.60;99.90
70368;DHT22;57789;53.868;10.728;2024-02-15T01:21:48;10.60;99.90
70368;DHT22;57789;53.868;10.728;2024-02-15T01:24:14;10.70;99.90
70368;DHT22;57789;53.868;10.728;2024-02-15T01:26:41;10.60;99.90
70368;DHT22;57789;53.868;10.728;2024-02-15T01:29:06;10.70;99.90
70368;DHT22;57789;53.868;10.728;2024-02-15T01:31:36;10.70;99.90
70368;DHT22;57789;53.868;10.728;2024-02-15T01:34:02;10.70;99.90
70368;DHT22;57789;53.868;10.728;2024-02-15T01:36:28;10.70;99.90
70368;DHT22;57789;53.868;10.728;2024-02-15T01:38:54;10.70;99.90
70368;DHT22;57789;53.868;10.728;2024-02-15T01:41:20;10.70;99.90
70368;DHT22;57789;53.868;10.728;2024-02-15T01:43:45;10.70;99.90
70368;DHT22;57789;53.868;10.728;2024-02-15T01:46:14;10.70;99.90
70368;DHT22;57789;53.868;10.728;2024-02-15T01:48:41;10.70;99.90
70368;DHT22;57789;53.868;10.728;2024-02-15T01:51:08;10.70;99.90
70368;DHT22;57789;53.868;10.728;2024-02-15T01:53:35;10.70;99.90
70368;DHT22;57789;53.868;10.728;2024-02-15T01:56:02;10.70;99.90
70368;DHT22;57789;53.868;10.728;2024-02-15T01:58:29;10.70;99.90
70368;DHT22;57789;53.868;10.728;2024-02-15T02:00:58;10.70;99.90
70368;DHT22;57789;53.868;10.728;2024-02-15T02:03:25;10.70;99.90
70368;DHT22;57789;53.868;10.728;2024-02-15T02:05:51;10.70;99.90
70368;DHT22;57789;53.868;10.728;2024-02-15T02:08:16;10.70;99.90
70368;DHT22;57789;53.868;10.728;2024-02-15T02:10:42;10.70;99.90
70368;DHT22;57789;53.868;10.728;2024-02-15T02:13:09;10.70;99.90
70368;DHT22;57789;53.868;10.728;2024-02-15T02:15:36;10.70;99.90
70368;DHT22;57789;53.868;10.728;2024-02-15T02:18:03;10.70;99.90
70368;DHT22;57789;53.868;10.728;2024-02-15T02:20:36;10.70;99.90
70368;DHT22;57789;53.868;10.728;2024-02-15T02:25:32;10.70;99.90
70368;DHT22;57789;53.868;10.728;2024-02-15T02:28:00;10.80;99.90
70368;DHT22;57789;53.868;10.728;2024-02-15T02:30:26;10.80;99.90
70368;DHT22;57789;53.868;10.728;2024-02-15T02:32:55;10.80;99.90
70368;DHT22;57789;53.868;10.728;2024-02-15T02:35:22;10.80;99.90
70368;DHT22;57789;53.868;10.728;2024-02-15T02:37:48;10.80;99.90
70368;DHT22;57789;53.868;10.728;2024-02-15T02:40:15;10.80;99.90
70368;DHT22;57789;53.868;10.728;2024-02-15T02:42:52;10.80;99.90
70368;DHT22;57789;53.868;10.728;2024-02-15T02:45:18;10.90;99.90
70368;DHT22;57789;53.868;10.728;2024-02-15T02:47:46;10.80;99.90
70368;DHT22;57789;53.868;10.728;2024-02-15T02:50:15;10.80;99.90
70368;DHT22;57789;53.868;10.728;2024-02-15T02:52:41;10.90;99.90
70368;DHT22;57789;53.868;10.728;2024-02-15T02:55:07;10.90;99.90
70368;DHT22;57789;53.868;10.728;2024-02-15T02:57:37;10.90;99.90
70368;DHT22;57789;53.868;10.728;2024-02-15T03:00:10;10.90;99.90
70368;DHT22;57789;53.868;10.728;2024-02-15T03:02:40;11.00;99.90
70368;DHT22;57789;53.868;10.728;2024-02-15T03:05:07;10.90;99.90
70368;DHT22;57789;53.868;10.728;2024-02-15T03:07:34;10.90;99.90
70368;DHT22;57789;53.868;10.728;2024-02-15T03:10:04;10.90;99.90
70368;DHT22;57789;53.868;10.728;2024-02-15T03:12:37;11.00;99.90
70368;DHT22;57789;53.868;10.728;2024-02-15T03:15:03;11.00;99.90
70368;DHT22;57789;53.868;10.728;2024-02-15T03:17:29;11.00;99.90
70368;DHT22;57789;53.868;10.728;2024-02-15T03:19:57;11.00;99.90
70368;DHT22;57789;53.868;10.728;2024-02-15T03:22:23;11.00;99.90
70368;DHT22;57789;53.868;10.728;2024-02-15T03:24:51;11.00;99.90
70368;DHT22;57789;53.868;10.728;2024-02-15T03:27:17;11.00;99.90
70368;DHT22;57789;53.868;10.728;2024-02-15T03:29:43;11.00;99.90
70368;DHT22;57789;53.868;10.728;2024-02-15T03:32:09;11.00;99.90
70368;DHT22;57789;53.868;10.728;2024-02-15T03:34:37;11.00;99.90
70368;DHT22;57789;53.868;10.728;2024-02-15T03:37:05;11.00;99.90
70368;DHT22;57789;53.868;10.728;2024-02-15T03:39:31;11.00;99.90
70368;DHT22;57789;53.868;10.728;2024-02-15T03:41:58;11.00;99.90
70368;DHT22;57789;53.868;10.728;2024-02-15T03:44:24;11.00;99.90
70368;DHT22;57789;53.868;10.728;2024-02-15T03:46:52;11.00;99.90
70368;DHT22;57789;53.868;10.728;2024-02-15T03:49:19;11.00;99.90
70368;DHT22;57789;53.868;10.728;2024-02-15T03:51:45;11.00;99.90
70368;DHT22;57789;53.868;10.728;2024-02-15T03:54:12;11.00;99.90
70368;DHT22;57789;53.868;10.728;2024-02-15T03:56:49;11.00;99.90
70368;DHT22;57789;53.868;10.728;2024-02-15T03:59:19;11.00;99.90
70368;DHT22;57789;53.868;10.728;2024-02-15T04:01:51;11.00;99.90
70368;DHT22;57789;53.868;10.728;2024-02-15T04:04:18;11.00;99.90
70368;DHT22;57789;53.868;10.728;2024-02-15T04:06:49;11.00;99.90
70368;DHT22;57789;53.868;10.728;2024-02-15T04:09:15;11.00;99.90
70368;DHT22;57789;53.868;10.728;2024-02-15T04:11:49;11.00;99.90
70368;DHT22;57789;53.868;10.728;2024-02-15T04:14:18;11.00;99.90
70368;DHT22;57789;53.868;10.728;2024-02-15T04:16:45;11.00;99.90
70368;DHT22;57789;53.868;10.728;2024-02-15T04:19:11;11.00;99.90
70368;DHT22;57789;53.868;10.728;2024-02-15T04:21:37;11.00;99.90
70368;DHT22;57789;53.868;10.728;2024-02-15T04:24:04;11.00;99.90
70368;DHT22;57789;53.868;10.728;2024-02-15T04:26:31;11.00;99.90
70368;DHT22;57789;53.868;10.728;2024-02-15T04:28:58;11.00;99.90
70368;DHT22;57789;53.868;10.728;2024-02-15T04:31:24;11.00;99.90
70368;DHT22;57789;53.868;10.728;2024-02-15T04:33:54;11.00;99.90
70368;DHT22;57789;53.868;10.728;2024-02-15T04:36:21;11.00;99.90
70368;DHT22;57789;53.868;10.728;2024-02-15T04:38:50;11.00;99.90
70368;DHT22;57789;53.868;10.728;2024-02-15T04:41:17;11.00;99.90
70368;DHT22;57789;53.868;10.728;2024-02-15T04:43:46;11.00;99.90
70368;DHT22;57789;53.868;10.728;2024-02-15T04:46:13;11.00;99.90
70368;DHT22;57789;53.868;10.728;2024-02-15T04:48:41;11.00;99.90
70368;DHT22;57789;53.868;10.728;2024-02-15T04:51:10;11.10;99.90
70368;DHT22;57789;53.868;10.728;2024-02-15T04:53:36;11.00;99.90
70368;DHT22;57789;53.868;10.728;2024-02-15T04:56:05;11.00;99.90
70368;DHT22;57789;53.868;10.728;2024-02-15T04:58:37;11.00;99.90
70368;DHT22;57789;53.868;10.728;2024-02-15T05:01:03;11.00;99.90
70368;DHT22;57789;53.868;10.728;2024-02-15T05:03:33;11.00;99.90
70368;DHT22;57789;53.868;10.728;2024-02-15T05:06:01;11.10;99.90
70368;DHT22;57789;53.868;10.728;2024-02-15T05:08:29;11.00;99.90
70368;DHT22;57789;53.868;10.728;2024-02-15T05:10:57;11.10;99.90
70368;DHT22;57789;53.868;10.728;2024-02-15T05:13:26;11.10;99.90
70368;DHT22;57789;53.868;10.728;2024-02-15T05:15:52;11.10;99.90
70368;DHT22;57789;53.868;10.728;2024-02-15T05:18:18;11.10;99.90
70368;DHT22;57789;53.868;10.728;2024-02-15T05:20:44;11.10;99.90
70368;DHT22;57789;53.868;10.728;2024-02-15T05:23:09;11.10;99.90
70368;DHT22;57789;53.868;10.728;2024-02-15T05:25:35;11.10;99.90
70368;DHT22;57789;53.868;10.728;2024-02-15T05:28:01;11.20;99.90
70368;DHT22;57789;53.868;10.728;2024-02-15T05:30:29;11.20;99.90
70368;DHT22;57789;53.868;10.728;2024-02-15T05:32:58;11.10;99.90
70368;DHT22;57789;53.868;10.728;2024-02-15T05:35:24;11.10;99.90
70368;DHT22;57789;53.868;10.728;2024-02-15T05:37:50;11.10;99.90
70368;DHT22;57789;53.868;10.728;2024-02-15T05:40:18;11.10;99.90
70368;DHT22;57789;53.868;10.728;2024-02-15T05:42:45;11.20;99.90
70368;DHT22;57789;53.868;10.728;2024-02-15T05:45:30;11.20;99.90
70368;DHT22;57789;53.868;10.728;2024-02-15T05:47:59;11.20;99.90
70368;DHT22;57789;53.868;10.728;2024-02-15T05:50:24;11.20;99.90
70368;DHT22;57789;53.868;10.728;2024-02-15T05:52:53;11.20;99.90
70368;DHT22;57789;53.868;10.728;2024-02-15T05:55:20;11.20;99.90
70368;DHT22;57789;53.868;10.728;2024-02-15T05:57:46;11.20;99.90
70368;DHT22;57789;53.868;10.728;2024-02-15T06:00:13;11.20;99.90
70368;DHT22;57789;53.868;10.728;2024-02-15T06:02:40;11.20;99.90
70368;DHT22;57789;53.868;10.728;2024-02-15T06:05:06;11.20;99.90
70368;DHT22;57789;53.868;10.728;2024-02-15T06:07:32;11.20;99.90
70368;DHT22;57789;53.868;10.728;2024-02-15T06:09:58;11.30;99.90
70368;DHT22;57789;53.868;10.728;2024-02-15T06:12:31;11.20;99.90
70368;DHT22;57789;53.868;10.728;2024-02-15T06:14:57;11.30;99.90
70368;DHT22;57789;53.868;10.728;2024-02-15T06:17:23;11.20;99.90
70368;DHT22;57789;53.868;10.728;2024-02-15T06:19:50;11.20;99.90
70368;DHT22;57789;53.868;10.728;2024-02-15T06:22:15;11.20;99.90
70368;DHT22;57789;53.868;10.728;2024-02-15T06:24:42;11.20;99.90
70368;DHT22;57789;53.868;10.728;2024-02-15T06:27:08;11.30;99.90
70368;DHT22;57789;53.868;10.728;2024-02-15T06:29:35;11.30;99.90
70368;DHT22;57789;53.868;10.728;2024-02-15T06:32:19;11.30;99.90
70368;DHT22;57789;53.868;10.728;2024-02-15T06:35:04;11.40;99.90
70368;DHT22;57789;53.868;10.728;2024-02-15T06:37:48;11.30;99.90
70368;DHT22;57789;53.868;10.728;2024-02-15T06:40:32;11.40;99.90
70368;DHT22;57789;53.868;10.728;2024-02-15T06:42:58;11.30;99.90
70368;DHT22;57789;53.868;10.728;2024-02-15T06:45:24;11.30;99.90
70368;DHT22;57789;53.868;10.728;2024-02-15T06:47:51;11.30;99.90
70368;DHT22;57789;53.868;10.728;2024-02-15T06:50:17;11.30;99.90
70368;DHT22;57789;53.868;10.728;2024-02-15T06:52:43;11.30;99.90
70368;DHT22;57789;53.868;10.728;2024-02-15T06:55:10;11.30;99.90
70368;DHT22;57789;53.868;10.728;2024-02-15T06:57:38;11.30;99.90
70368;DHT22;57789;53.868;10.728;2024-02-15T07:00:09;11.30;99.90
70368;DHT22;57789;53.868;10.728;2024-02-15T07:02:36;11.30;99.90
70368;DHT22;57789;53.868;10.728;2024-02-15T07:05:02;11.30;99.90
70368;DHT22;57789;53.868;10.728;2024-02-15T07:07:29;11.40;99.90
70368;DHT22;57789;53.868;10.728;2024-02-15T07:09:54;11.40;99.90
70368;DHT22;57789;53.868;10.728;2024-02-15T07:12:21;11.30;99.90
70368;DHT22;57789;53.868;10.728;2024-02-15T07:14:47;11.40;99.90
70368;DHT22;57789;53.868;10.728;2024-02-15T07:17:13;11.40;99.90
70368;DHT22;57789;53.868;10.728;2024-02-15T07:19:45;11.40;99.90
70368;DHT22;57789;53.868;10.728;2024-02-15T07:22:15;11.40;99.90
70368;DHT22;57789;53.868;10.728;2024-02-15T07:24:43;11.50;99.90
70368;DHT22;57789;53.868;10.728;2024-02-15T07:27:09;11.40;99.90
70368;DHT22;57789;53.868;10.728;2024-02-15T07:29:36;11.40;99.90
70368;DHT22;57789;53.868;10.728;2024-02-15T07:32:06;11.50;99.90
70368;DHT22;57789;53.868;10.728;2024-02-15T07:34:33;11.40;99.90
70368;DHT22;57789;53.868;10.728;2024-02-15T07:37:01;11.50;99.90
70368;DHT22;57789;53.868;10.728;2024-02-15T07:39:27;11.40;99.90
70368;DHT22;57789;53.868;10.728;2024-02-15T07:41:54;11.50;99.90
70368;DHT22;57789;53.868;10.728;2024-02-15T07:44:25;11.50;99.90
70368;DHT22;57789;53.868;10.728;2024-02-15T07:46:58;11.50;99.90
70368;DHT22;57789;53.868;10.728;2024-02-15T07:49:26;11.50;99.90
70368;DHT22;57789;53.868;10.728;2024-02-15T07:51:52;11.60;99.90
70368;DHT22;57789;53.868;10.728;2024-02-15T07:54:22;11.60;99.90
70368;DHT22;57789;53.868;10.728;2024-02-15T07:56:48;11.60;99.90
70368;DHT22;57789;53.868;10.728;2024-02-15T07:59:14;11.60;99.90
70368;DHT22;57789;53.868;10.728;2024-02-15T08:01:43;11.50;99.90
70368;DHT22;57789;53.868;10.728;2024-02-15T08:04:11;11.50;99.90
70368;DHT22;57789;53.868;10.728;2024-02-15T08:06:38;11.60;99.90
70368;DHT22;57789;53.868;10.728;2024-02-15T08:09:04;11.70;99.90
70368;DHT22;57789;53.868;10.728;2024-02-15T08:11:33;11.70;99.90
70368;DHT22;57789;53.868;10.728;2024-02-15T08:13:59;11.70;99.90
70368;DHT22;57789;53.868;10.728;2024-02-15T08:16:27;11.80;99.90
70368;DHT22;57789;53.868;10.728;2024-02-15T08:18:56;11.70;99.90
70368;DHT22;57789;53.868;10.728;2024-02-15T08:21:31;11.80;99.90
70368;DHT22;57789;53.868;10.728;2024-02-15T08:24:04;11.70;99.90
70368;DHT22;57789;53.868;10.728;2024-02-15T08:26:37;11.70;99.90
70368;DHT22;57789;53.868;10.728;2024-02-15T08:29:09;11.70;99.90
70368;DHT22;57789;53.868;10.728;2024-02-15T08:31:37;11.70;99.90
70368;DHT22;57789;53.868;10.728;2024-02-15T08:34:03;11.70;99.90
70368;DHT22;57789;53.868;10.728;2024-02-15T08:36:31;11.70;99.90
70368;DHT22;57789;53.868;10.728;2024-02-15T08:38:57;11.80;99.90
70368;DHT22;57789;53.868;10.728;2024-02-15T08:41:23;11.80;99.90
70368;DHT22;57789;53.868;10.728;2024-02-15T08:43:53;11.90;99.90
70368;DHT22;57789;53.868;10.728;2024-02-15T08:46:19;11.90;99.90
70368;DHT22;57789;53.868;10.728;2024-02-15T08:48:48;11.90;99.90
70368;DHT22;57789;53.868;10.728;2024-02-15T08:51:13;11.90;99.90
70368;DHT22;57789;53.868;10.728;2024-02-15T08:53:40;11.90;99.90
70368;DHT22;57789;53.868;10.728;2024-02-15T08:56:05;11.90;99.90
70368;DHT22;57789;53.868;10.728;2024-02-15T08:58:31;12.00;99.90
70368;DHT22;57789;53.868;10.728;2024-02-15T09:00:58;12.00;99.90
70368;DHT22;57789;53.868;10.728;2024-02-15T09:03:24;11.90;99.90
70368;DHT22;57789;53.868;10.728;2024-02-15T09:05:51;11.90;99.90
70368;DHT22;57789;53.868;10.728;2024-02-15T09:08:17;12.00;99.90
70368;DHT22;57789;53.868;10.728;2024-02-15T09:10:48;12.10;99.90
70368;DHT22;57789;53.868;10.728;2024-02-15T09:13:15;12.10;99.90
70368;DHT22;57789;53.868;10.728;2024-02-15T09:15:41;12.10;99.90
70368;DHT22;57789;53.868;10.728;2024-02-15T09:18:10;12.10;99.90
70368;DHT22;57789;53.868;10.728;2024-02-15T09:20:37;12.10;99.90
70368;DHT22;57789;53.868;10.728;2024-02-15T09:23:05;12.10;99.90
70368;DHT22;57789;53.868;10.728;2024-02-15T09:25:37;12.10;99.90
70368;DHT22;57789;53.868;10.728;2024-02-15T09:28:04;12.20;99.90
70368;DHT22;57789;53.868;10.728;2024-02-15T09:30:31;12.30;99.90
70368;DHT22;57789;53.868;10.728;2024-02-15T09:32:59;12.30;99.90
70368;DHT22;57789;53.868;10.728;2024-02-15T09:35:25;12.40;99.90
70368;DHT22;57789;53.868;10.728;2024-02-15T09:37:52;12.50;99.90
70368;DHT22;57789;53.868;10.728;2024-02-15T09:40:19;12.60;99.90
70368;DHT22;57789;53.868;10.728;2024-02-15T09:42:47;12.60;99.90
70368;DHT22;57789;53.868;10.728;2024-02-15T09:45:14;12.80;99.90
70368;DHT22;57789;53.868;10.728;2024-02-15T09:47:44;12.80;99.90
70368;DHT22;57789;53.868;10.728;2024-02-15T09:50:15;12.90;99.90
70368;DHT22;57789;53.868;10.728;2024-02-15T09:55:11;12.90;99.90
70368;DHT22;57789;53.868;10.728;2024-02-15T09:57:46;12.90;99.90
70368;DHT22;57789;53.868;10.728;2024-02-15T10:00:13;12.90;99.90
70368;DHT22;57789;53.868;10.728;2024-02-15T10:02:50;12.90;99.90
70368;DHT22;57789;53.868;10.728;2024-02-15T10:05:17;12.90;99.90
70368;DHT22;57789;53.868;10.728;2024-02-15T10:07:44;12.90;99.90
70368;DHT22;57789;53.868;10.728;2024-02-15T10:12:44;12.90;99.90
70368;DHT22;57789;53.868;10.728;2024-02-15T10:15:30;12.90;99.90
70368;DHT22;57789;53.868;10.728;2024-02-15T10:17:57;12.90;99.90
70368;DHT22;57789;53.868;10.728;2024-02-15T10:20:27;12.90;99.90
70368;DHT22;57789;53.868;10.728;2024-02-15T10:23:09;12.90;99.90
70368;DHT22;57789;53.868;10.728;2024-02-15T10:25:39;12.90;99.90
70368;DHT22;57789;53.868;10.728;2024-02-15T10:28:10;12.80;99.90
70368;DHT22;57789;53.868;10.728;2024-02-15T10:30:39;12.80;99.90
70368;DHT22;57789;53.868;10.728;2024-02-15T10:33:10;12.80;99.90
70368;DHT22;57789;53.868;10.728;2024-02-15T10:35:36;12.80;99.90
70368;DHT22;57789;53.868;10.728;2024-02-15T10:38:10;12.80;99.90
70368;DHT22;57789;53.868;10.728;2024-02-15T10:40:40;12.90;99.90
70368;DHT22;57789;53.868;10.728;2024-02-15T10:43:10;12.90;99.90
70368;DHT22;57789;53.868;10.728;2024-02-15T10:45:40;12.80;99.90
70368;DHT22;57789;53.868;10.728;2024-02-15T10:48:11;12.90;99.90
70368;DHT22;57789;53.868;10.728;2024-02-15T10:50:45;12.90;99.90
70368;DHT22;57789;53.868;10.728;2024-02-15T10:53:30;12.90;99.90
70368;DHT22;57789;53.868;10.728;2024-02-15T10:56:22;13.00;99.90
70368;DHT22;57789;53.868;10.728;2024-02-15T10:59:10;12.90;99.90
70368;DHT22;57789;53.868;10.728;2024-02-15T11:01:38;13.00;99.90
70368;DHT22;57789;53.868;10.728;2024-02-15T11:04:08;13.00;99.90
70368;DHT22;57789;53.868;10.728;2024-02-15T11:06:39;13.00;99.90
70368;DHT22;57789;53.868;10.728;2024-02-15T11:09:09;13.00;99.90
70368;DHT22;57789;53.868;10.728;2024-02-15T11:11:39;13.00;99.90
70368;DHT22;57789;53.868;10.728;2024-02-15T11:14:29;13.00;99.90
70368;DHT22;57789;53.868;10.728;2024-02-15T11:17:02;13.00;99.90
70368;DHT22;57789;53.868;10.728;2024-02-15T11:22:15;13.10;99.90
70368;DHT22;57789;53.868;10.728;2024-02-15T11:25:05;13.00;99.90
70368;DHT22;57789;53.868;10.728;2024-02-15T11:27:37;13.10;99.90
70368;DHT22;57789;53.868;10.728;2024-02-15T11:30:07;13.10;99.90
70368;DHT22;57789;53.868;10.728;2024-02-15T11:32:47;13.10;99.90
70368;DHT22;57789;53.868;10.728;2024-02-15T11:35:25;13.10;99.90
70368;DHT22;57789;53.868;10.728;2024-02-15T11:37:51;13.10;99.90
70368;DHT22;57789;53.868;10.728;2024-02-15T11:43:08;13.10;99.90
70368;DHT22;57789;53.868;10.728;2024-02-15T11:45:35;13.10;99.90
70368;DHT22;57789;53.868;10.728;2024-02-15T11:48:10;13.10;99.90
70368;DHT22;57789;53.868;10.728;2024-02-15T11:50:40;13.10;99.90
70368;DHT22;57789;53.868;10.728;2024-02-15T11:53:08;13.10;99.90
70368;DHT22;57789;53.868;10.728;2024-02-15T11:55:39;13.10;99.90
70368;DHT22;57789;53.868;10.728;2024-02-15T11:58:05;13.10;99.90
70368;DHT22;57789;53.868;10.728;2024-02-15T12:00:35;13.10;99.90
70368;DHT22;57789;53.868;10.728;2024-02-15T12:03:20;13.00;99.90
70368;DHT22;57789;53.868;10.728;2024-02-15T12:06:06;13.10;99.90
70368;DHT22;57789;53.868;10.728;2024-02-15T12:08:52;13.10;99.90
70368;DHT22;57789;53.868;10.728;2024-02-15T12:11:36;13.10;99.90
70368;DHT22;57789;53.868;10.728;2024-02-15T12:14:21;13.10;99.90
70368;DHT22;57789;53.868;10.728;2024-02-15T12:17:07;13.10;99.90
70368;DHT22;57789;53.868;10.728;2024-02-15T12:20:00;13.10;99.90
70368;DHT22;57789;53.868;10.728;2024-02-15T12:22:34;13.10;99.90
70368;DHT22;57789;53.868;10.728;2024-02-15T12:25:02;13.10;99.90
70368;DHT22;57789;53.868;10.728;2024-02-15T12:27:41;13.10;99.90
70368;DHT22;57789;53.868;10.728;2024-02-15T12:30:14;13.10;99.90
70368;DHT22;57789;53.868;10.728;2024-02-15T12:32:41;13.10;99.90
70368;DHT22;57789;53.868;10.728;2024-02-15T12:35:11;13.10;99.90
70368;DHT22;57789;53.868;10.728;2024-02-15T12:37:48;13.10;99.90
70368;DHT22;57789;53.868;10.728;2024-02-15T12:40:22;13.00;99.90
70368;DHT22;57789;53.868;10.728;2024-02-15T12:42:48;13.00;99.90
70368;DHT22;57789;53.868;10.728;2024-02-15T12:45:18;13.10;99.90
70368;DHT22;57789;53.868;10.728;2024-02-15T12:47:56;13.10;99.90
70368;DHT22;57789;53.868;10.728;2024-02-15T12:50:29;13.10;99.90
70368;DHT22;57789;53.868;10.728;2024-02-15T12:52:55;13.00;99.90
70368;DHT22;57789;53.868;10.728;2024-02-15T12:55:22;13.10;99.90
70368;DHT22;57789;53.868;10.728;2024-02-15T12:57:52;13.00;99.90
70368;DHT22;57789;53.868;10.728;2024-02-15T13:00:22;13.10;99.90
70368;DHT22;57789;53.868;10.728;2024-02-15T13:02:54;13.10;99.90
70368;DHT22;57789;53.868;10.728;2024-02-15T13:05:22;13.10;99.90
70368;DHT22;57789;53.868;10.728;2024-02-15T13:07:52;13.10;99.90
70368;DHT22;57789;53.868;10.728;2024-02-15T13:10:23;13.10;99.90
70368;DHT22;57789;53.868;10.728;2024-02-15T13:12:52;13.10;99.90
70368;DHT22;57789;53.868;10.728;2024-02-15T13:15:21;13.10;99.90
70368;DHT22;57789;53.868;10.728;2024-02-15T13:17:53;13.10;99.90
70368;DHT22;57789;53.868;10.728;2024-02-15T13:20:26;13.10;99.90
70368;DHT22;57789;53.868;10.728;2024-02-15T13:23:01;13.00;99.90
70368;DHT22;57789;53.868;10.728;2024-02-15T13:25:46;13.00;99.90
70368;DHT22;57789;53.868;10.728;2024-02-15T13:28:12;13.00;99.90
70368;DHT22;57789;53.868;10.728;2024-02-15T13:30:38;12.90;99.90
70368;DHT22;57789;53.868;10.728;2024-02-15T13:33:05;12.90;99.90
70368;DHT22;57789;53.868;10.728;2024-02-15T13:35:32;13.00;99.90
70368;DHT22;57789;53.868;10.728;2024-02-15T13:37:58;12.90;99.90
70368;DHT22;57789;53.868;10.728;2024-02-15T13:40:24;12.90;99.90
70368;DHT22;57789;53.868;10.728;2024-02-15T13:42:54;12.90;99.90
70368;DHT22;57789;53.868;10.728;2024-02-15T13:45:28;12.90;99.90
70368;DHT22;57789;53.868;10.728;2024-02-15T13:48:03;12.80;99.90
70368;DHT22;57789;53.868;10.728;2024-02-15T13:50:36;12.80;99.90
70368;DHT22;57789;53.868;10.728;2024-02-15T13:53:04;12.80;99.90
70368;DHT22;57789;53.868;10.728;2024-02-15T13:55:30;12.80;99.90
70368;DHT22;57789;53.868;10.728;2024-02-15T13:57:57;12.80;99.90
70368;DHT22;57789;53.868;10.728;2024-02-15T14:00:24;12.80;99.90
70368;DHT22;57789;53.868;10.728;2024-02-15T14:03:00;12.70;99.90
70368;DHT22;57789;53.868;10.728;2024-02-15T14:05:30;12.70;99.90
70368;DHT22;57789;53.868;10.728;2024-02-15T14:07:58;12.70;99.90
70368;DHT22;57789;53.868;10.728;2024-02-15T14:10:25;12.70;99.90
70368;DHT22;57789;53.868;10.728;2024-02-15T14:12:53;12.70;99.90
70368;DHT22;57789;53.868;10.728;2024-02-15T14:15:25;12.70;99.90
70368;DHT22;57789;53.868;10.728;2024-02-15T14:17:51;12.60;99.90
70368;DHT22;57789;53.868;10.728;2024-02-15T14:20:18;12.70;99.90
70368;DHT22;57789;53.868;10.728;2024-02-15T14:22:49;12.70;99.90
70368;DHT22;57789;53.868;10.728;2024-02-15T14:25:18;12.70;99.90
70368;DHT22;57789;53.868;10.728;2024-02-15T14:27:45;12.70;99.90
70368;DHT22;57789;53.868;10.728;2024-02-15T14:30:13;12.60;99.90
70368;DHT22;57789;53.868;10.728;2024-02-15T14:32:58;12.70;99.90
70368;DHT22;57789;53.868;10.728;2024-02-15T14:35:33;12.70;99.90
70368;DHT22;57789;53.868;10.728;2024-02-15T14:38:04;12.60;99.90
70368;DHT22;57789;53.868;10.728;2024-02-15T14:40:44;12.60;99.90
70368;DHT22;57789;53.868;10.728;2024-02-15T14:43:11;12.60;99.90
70368;DHT22;57789;53.868;10.728;2024-02-15T14:45:39;12.60;99.90
70368;DHT22;57789;53.868;10.728;2024-02-15T14:48:08;12.60;99.90
70368;DHT22;57789;53.868;10.728;2024-02-15T14:50:39;12.50;99.90
70368;DHT22;57789;53.868;10.728;2024-02-15T14:53:05;12.50;99.90
70368;DHT22;57789;53.868;10.728;2024-02-15T14:55:36;12.50;99.90
70368;DHT22;57789;53.868;10.728;2024-02-15T14:58:08;12.50;99.90
70368;DHT22;57789;53.868;10.728;2024-02-15T15:00:34;12.50;99.90
70368;DHT22;57789;53.868;10.728;2024-02-15T15:03:00;12.50;99.90
70368;DHT22;57789;53.868;10.728;2024-02-15T15:05:28;12.50;99.90
70368;DHT22;57789;53.868;10.728;2024-02-15T15:08:12;12.50;99.90
70368;DHT22;57789;53.868;10.728;2024-02-15T15:10:57;12.50;99.90
70368;DHT22;57789;53.868;10.728;2024-02-15T15:13:41;12.50;99.90
70368;DHT22;57789;53.868;10.728;2024-02-15T15:16:07;12.50;99.90
70368;DHT22;57789;53.868;10.728;2024-02-15T15:18:33;12.50;99.90
70368;DHT22;57789;53.868;10.728;2024-02-15T15:20:59;12.50;99.90
70368;DHT22;57789;53.868;10.728;2024-02-15T15:23:27;12.50;99.90
70368;DHT22;57789;53.868;10.728;2024-02-15T15:25:59;12.50;99.90
70368;DHT22;57789;53.868;10.728;2024-02-15T15:28:25;12.50;99.90
70368;DHT22;57789;53.868;10.728;2024-02-15T15:30:51;12.50;99.90
70368;DHT22;57789;53.868;10.728;2024-02-15T15:33:17;12.50;99.90
70368;DHT22;57789;53.868;10.728;2024-02-15T15:35:44;12.50;99.90
70368;DHT22;57789;53.868;10.728;2024-02-15T15:38:11;12.50;99.90
70368;DHT22;57789;53.868;10.728;2024-02-15T15:40:37;12.50;99.90